Juniper, Georgia
Current Conditions -  °F | °C
As of 10:51 AM on Monday 24 Nov 2014 (Local Time) from KCSG Reporting Station
Clear Clear  
Wind Chill: 71°   Ceiling: Unl
Heat Index: 71°   Visibility: 10mi
Dew Point: 61°   Wind: 12mph
Humidity: 70%   Direction: 260°W
Pressure: 29.83"   Gusts: 18mph
Location:  32.585°N, 84.6173°W
Report Text: KCSG 241551Z 26010G16KT 10SM CLR 22/16 A2983 RMK AO2 SLP099 T02170161
Loading
Personal Weather Stations






























Interactive Weather Map New forecast layout! Learn more

10-Day Weather Forecast

Advertisements
Track Severe Weather on mobile